createdAt,value
2017-04-17T00:00:24.401Z,31.46
2017-04-17T00:01:33.164Z,31.95
2017-04-17T00:02:41.934Z,31.75
2017-04-17T00:03:51.819Z,31.46
2017-04-17T00:05:01.779Z,31.56
2017-04-17T00:06:11.103Z,31.46
2017-04-17T00:07:19.867Z,31.65
2017-04-17T00:08:28.631Z,31.56
2017-04-17T00:09:37.708Z,31.37
2017-04-17T00:10:47.079Z,31.95
2017-04-17T00:11:55.835Z,31.46
2017-04-17T00:13:04.566Z,31.85
2017-04-17T00:14:13.867Z,31.65
2017-04-17T00:15:22.937Z,31.37
2017-04-17T00:16:32.013Z,31.56
2017-04-17T00:17:41.489Z,31.56
2017-04-17T00:18:50.639Z,31.46
2017-04-17T00:20:00.281Z,31.56
2017-04-17T00:21:09.036Z,31.65
2017-04-17T00:22:18.111Z,31.75
2017-04-17T00:23:27.174Z,31.56
2017-04-17T00:24:36.849Z,31.56
2017-04-17T00:25:45.605Z,31.95
2017-04-17T00:26:54.343Z,31.56
2017-04-17T00:28:03.060Z,31.56
2017-04-17T00:29:12.463Z,31.46
2017-04-17T00:30:21.509Z,31.37
2017-04-17T00:31:30.529Z,31.95
2017-04-17T00:32:39.273Z,31.56
2017-04-17T00:33:48.631Z,31.65
2017-04-17T00:34:57.705Z,31.95
2017-04-17T00:36:06.775Z,31.46
2017-04-17T00:37:15.844Z,31.46
2017-04-17T00:38:25.527Z,31.56
2017-04-17T00:39:34.588Z,31.56
2017-04-17T00:40:43.347Z,31.46
2017-04-17T00:41:52.394Z,31.85
2017-04-17T00:43:01.718Z,31.75
2017-04-17T00:44:11.377Z,31.37
2017-04-17T00:45:21.057Z,31.56
2017-04-17T00:46:30.319Z,31.75
2017-04-17T00:47:39.647Z,31.75
2017-04-17T00:48:49.019Z,31.95
2017-04-17T00:49:58.396Z,31.65
2017-04-17T00:51:07.193Z,31.65
2017-04-17T00:52:15.951Z,31.85
2017-04-17T00:53:25.631Z,31.75
2017-04-17T00:54:34.702Z,31.85
2017-04-17T00:55:43.759Z,31.75
2017-04-17T00:56:52.530Z,31.75
2017-04-17T00:58:01.271Z,31.85
2017-04-17T00:59:10.641Z,31.65
2017-04-17T01:00:19.995Z,31.75
2017-04-17T01:01:29.066Z,31.85
2017-04-17T01:02:38.437Z,31.46
2017-04-17T01:03:47.495Z,31.75
2017-04-17T01:04:57.151Z,31.85
2017-04-17T01:06:06.481Z,31.85
2017-04-17T01:07:15.848Z,31.85
2017-04-17T01:08:25.570Z,31.95
2017-04-17T01:09:34.989Z,31.75
2017-04-17T01:10:44.549Z,31.75
2017-04-17T01:11:53.622Z,31.75
2017-04-17T01:13:02.401Z,31.95
2017-04-17T01:14:11.442Z,32.04
2017-04-17T01:15:20.746Z,31.85
2017-04-17T01:16:29.773Z,31.85
2017-04-17T01:17:38.835Z,31.83
2017-04-17T01:18:48.144Z,31.95
2017-04-17T01:19:57.187Z,31.83
2017-04-17T01:21:06.566Z,31.85
2017-04-17T01:22:15.332Z,31.75
2017-04-17T01:23:24.399Z,31.85
2017-04-17T01:24:34.087Z,31.75
2017-04-17T01:25:43.170Z,31.65
2017-04-17T01:26:52.239Z,31.83
2017-04-17T01:28:01.562Z,31.83
2017-04-17T01:29:10.314Z,31.83
2017-04-17T01:30:19.688Z,31.64
2017-04-17T01:31:28.419Z,31.83
2017-04-17T01:32:37.444Z,31.74
2017-04-17T01:33:46.721Z,31.74
2017-04-17T01:34:55.779Z,31.75
2017-04-17T01:36:04.805Z,31.65
2017-04-17T01:37:14.149Z,31.83
2017-04-17T01:38:23.785Z,31.65
2017-04-17T01:39:32.857Z,31.65
2017-04-17T01:40:42.258Z,31.65
2017-04-17T01:41:51.907Z,31.95
2017-04-17T01:43:01.235Z,31.93
2017-04-17T01:44:10.603Z,31.83
2017-04-17T01:45:19.978Z,31.64
2017-04-17T01:46:28.731Z,31.74
2017-04-17T01:47:37.791Z,31.83
2017-04-17T01:48:47.448Z,31.83
2017-04-17T01:49:56.176Z,31.93
2017-04-17T01:51:05.277Z,31.83
2017-04-17T01:52:14.412Z,31.64
2017-04-17T01:53:23.528Z,31.64
2017-04-17T01:54:32.578Z,31.74
2017-04-17T01:55:41.330Z,31.83
2017-04-17T01:56:50.333Z,31.83
2017-04-17T01:57:59.642Z,31.74
2017-04-17T01:59:08.714Z,31.83
2017-04-17T02:00:17.782Z,31.83
2017-04-17T02:01:26.526Z,31.74
2017-04-17T02:02:35.259Z,31.93
2017-04-17T02:03:44.622Z,31.74
2017-04-17T02:04:53.699Z,31.83
2017-04-17T02:06:03.078Z,31.93
2017-04-17T02:07:12.143Z,31.83
2017-04-17T02:08:20.910Z,31.74
2017-04-17T02:09:29.977Z,31.64
2017-04-17T02:10:39.041Z,31.74
2017-04-17T02:11:48.407Z,31.74
2017-04-17T02:12:57.742Z,31.64
2017-04-17T02:14:07.072Z,31.54
2017-04-17T02:15:16.140Z,31.64
2017-04-17T02:16:25.511Z,31.83
2017-04-17T02:17:34.267Z,31.64
2017-04-17T02:18:43.606Z,31.64
2017-04-17T02:19:52.628Z,31.64
2017-04-17T02:21:01.397Z,31.83
2017-04-17T02:22:10.442Z,31.83
2017-04-17T02:23:19.161Z,31.74
2017-04-17T02:24:28.193Z,31.83
2017-04-17T02:25:37.263Z,31.74
2017-04-17T02:26:46.343Z,31.64
2017-04-17T02:27:55.119Z,31.74
2017-04-17T02:29:04.189Z,31.64
2017-04-17T02:30:13.566Z,31.83
2017-04-17T02:31:22.687Z,31.64
2017-04-17T02:32:31.954Z,31.74
2017-04-17T02:33:41.619Z,31.54
2017-04-17T02:34:50.381Z,31.74
2017-04-17T02:35:59.437Z,31.93
2017-04-17T02:37:08.478Z,31.83
2017-04-17T02:38:17.199Z,31.93
2017-04-17T02:39:26.562Z,31.64
2017-04-17T02:40:36.265Z,31.74
2017-04-17T02:41:46.256Z,31.74
2017-04-17T02:42:55.024Z,31.74
2017-04-17T02:44:04.063Z,31.93
2017-04-17T02:45:13.996Z,31.45
2017-04-17T02:46:23.110Z,31.64
2017-04-17T02:47:31.835Z,31.45
2017-04-17T02:48:41.211Z,31.45
2017-04-17T02:49:49.971Z,31.45
2017-04-17T02:50:59.348Z,31.26
2017-04-17T02:52:08.723Z,31.54
2017-04-17T02:53:18.062Z,31.45
2017-04-17T02:54:26.815Z,31.54
2017-04-17T02:55:36.184Z,31.54
2017-04-17T02:56:45.251Z,31.45
2017-04-17T02:57:54.007Z,31.35
2017-04-17T02:59:03.270Z,31.26
2017-04-17T03:00:12.947Z,31.35
2017-04-17T03:01:22.312Z,31.35
2017-04-17T03:02:31.068Z,31.45
2017-04-17T03:03:40.103Z,31.35
2017-04-17T03:04:49.430Z,31.45
2017-04-17T03:05:58.190Z,31.26
2017-04-17T03:07:06.947Z,31.45
2017-04-17T03:08:16.010Z,31.45
2017-04-17T03:09:25.722Z,31.54
2017-04-17T03:10:35.389Z,31.54
2017-04-17T03:11:44.421Z,31.64
2017-04-17T03:12:53.119Z,31.45
2017-04-17T03:14:02.743Z,31.64
2017-04-17T03:15:12.084Z,31.54
2017-04-17T03:16:20.798Z,31.45
2017-04-17T03:17:29.860Z,31.74
2017-04-17T03:18:38.925Z,31.74
2017-04-17T03:19:47.679Z,31.83
2017-04-17T03:20:57.045Z,31.93
2017-04-17T03:22:06.114Z,31.64
2017-04-17T03:23:15.146Z,31.64
2017-04-17T03:24:24.806Z,31.06
2017-04-17T03:25:33.861Z,31.54
2017-04-17T03:26:42.906Z,31.53
2017-04-17T03:27:51.622Z,31.35
2017-04-17T03:29:00.981Z,31.54
2017-04-17T03:30:10.047Z,31.45
2017-04-17T03:31:18.831Z,31.45
2017-04-17T03:32:28.092Z,31.45
2017-04-17T03:33:37.160Z,31.54
2017-04-17T03:34:46.223Z,31.54
2017-04-17T03:35:54.983Z,31.72
2017-04-17T03:37:04.072Z,31.43
2017-04-17T03:38:13.238Z,31.45
2017-04-17T03:39:22.340Z,31.26
2017-04-17T03:40:31.406Z,31.43
2017-04-17T03:41:40.191Z,31.45
2017-04-17T03:42:48.946Z,31.53
2017-04-17T03:43:58.313Z,31.53
2017-04-17T03:45:07.987Z,31.45
2017-04-17T03:46:17.327Z,31.24
2017-04-17T03:47:26.340Z,31.06
2017-04-17T03:48:35.406Z,31.24
2017-04-17T03:49:44.774Z,31.62
2017-04-17T03:50:54.436Z,31.26
2017-04-17T03:52:03.201Z,31.16
2017-04-17T03:53:12.565Z,31.64
2017-04-17T03:54:21.626Z,31.45
2017-04-17T03:55:30.994Z,31.35
2017-04-17T03:56:40.365Z,31.35
2017-04-17T03:57:49.427Z,31.26
2017-04-17T03:58:58.496Z,31.45
2017-04-17T04:00:07.876Z,31.26
2017-04-17T04:01:17.242Z,31.35
2017-04-17T04:02:26.197Z,31.35
2017-04-17T04:03:35.561Z,31.35
2017-04-17T04:04:44.608Z,31.54
2017-04-17T04:05:53.601Z,31.54
2017-04-17T04:07:02.381Z,31.06
2017-04-17T04:08:11.154Z,31.26
2017-04-17T04:09:20.210Z,31.45
2017-04-17T04:10:28.940Z,31.26
2017-04-17T04:11:37.955Z,31.35
2017-04-17T04:12:47.340Z,31.26
2017-04-17T04:13:56.606Z,31.35
2017-04-17T04:15:05.361Z,31.16
2017-04-17T04:16:14.117Z,30.97
2017-04-17T04:17:22.870Z,31.06
2017-04-17T04:18:31.938Z,31.06
2017-04-17T04:19:41.310Z,30.97
2017-04-17T04:20:50.376Z,30.77
2017-04-17T04:21:59.110Z,30.97
2017-04-17T04:23:08.130Z,30.87
2017-04-17T04:24:16.950Z,30.87
2017-04-17T04:25:26.391Z,31.06
2017-04-17T04:26:35.567Z,31.06
2017-04-17T04:27:45.230Z,30.87
2017-04-17T04:28:53.934Z,30.77
2017-04-17T04:30:03.027Z,30.79
2017-04-17T04:31:12.406Z,30.97
2017-04-17T04:32:21.586Z,30.58
2017-04-17T04:33:30.606Z,30.49
2017-04-17T04:34:39.963Z,30.79
2017-04-17T04:35:49.016Z,30.77
2017-04-17T04:36:57.763Z,30.69
2017-04-17T04:38:06.833Z,30.69
2017-04-17T04:39:15.587Z,30.79
2017-04-17T04:40:24.955Z,30.39
2017-04-17T04:41:33.713Z,30.79
2017-04-17T04:42:42.475Z,30.79
2017-04-17T04:43:51.549Z,30.98
2017-04-17T04:45:01.114Z,30.4
2017-04-17T04:46:10.180Z,30.98
2017-04-17T04:47:19.213Z,30.88
2017-04-17T04:48:28.539Z,31.08
2017-04-17T04:49:37.602Z,31.08
2017-04-17T04:50:46.659Z,30.98
2017-04-17T04:51:56.013Z,30.5
2017-04-17T04:53:04.722Z,31.08
2017-04-17T04:54:14.082Z,30.31
2017-04-17T04:55:23.086Z,31.08
2017-04-17T04:56:32.446Z,30.5
2017-04-17T04:57:41.474Z,30.4
2017-04-17T04:58:50.801Z,30.98
2017-04-17T04:59:59.560Z,30.6
2017-04-17T05:01:09.146Z,30.79
2017-04-17T05:02:18.818Z,30.98
2017-04-17T05:03:28.192Z,30.6
2017-04-17T05:04:36.925Z,30.69
2017-04-17T05:05:46.241Z,30.69
2017-04-17T05:06:55.008Z,30.69
2017-04-17T05:08:04.072Z,30.79
2017-04-17T05:09:13.115Z,30.5
2017-04-17T05:10:22.448Z,30.69
2017-04-17T05:11:32.011Z,30.69
2017-04-17T05:12:41.048Z,30.69
2017-04-17T05:13:51.286Z,30.69
2017-04-17T05:15:00.341Z,30.61
2017-04-17T05:16:09.405Z,30.4
2017-04-17T05:17:18.471Z,30.31
2017-04-17T05:18:27.538Z,30.4
2017-04-17T05:19:36.291Z,30.6
2017-04-17T05:20:45.021Z,30.4
2017-04-17T05:21:54.046Z,30.31
2017-04-17T05:23:02.782Z,30.5
2017-04-17T05:24:11.878Z,30.5
2017-04-17T05:25:21.260Z,30.6
2017-04-17T05:26:30.319Z,30.6
2017-04-17T05:27:39.641Z,30.42
2017-04-17T05:28:48.920Z,30.32
2017-04-17T05:29:57.934Z,30.42
2017-04-17T05:31:06.767Z,30.32
2017-04-17T05:32:15.801Z,30.32
2017-04-17T05:33:25.422Z,30.32
2017-04-17T05:34:34.165Z,30.42
2017-04-17T05:35:43.188Z,30.61
2017-04-17T05:36:51.957Z,30.22
2017-04-17T05:38:00.708Z,30.13
2017-04-17T05:39:10.070Z,30.13
2017-04-17T05:40:19.143Z,30.13
2017-04-17T05:41:27.931Z,30.13
2017-04-17T05:42:37.303Z,30.22
2017-04-17T05:43:46.334Z,30.13
2017-04-17T05:44:55.076Z,30.32
2017-04-17T05:46:04.049Z,30.52
2017-04-17T05:47:12.799Z,30.22
2017-04-17T05:48:21.571Z,29.74
2017-04-17T05:49:30.926Z,29.84
2017-04-17T05:50:39.983Z,30.22
2017-04-17T05:51:49.049Z,29.84
2017-04-17T05:52:58.418Z,29.94
2017-04-17T05:54:07.782Z,29.94
2017-04-17T05:55:16.848Z,30.22
2017-04-17T05:56:25.610Z,29.94
2017-04-17T05:57:34.694Z,29.94
2017-04-17T05:58:44.681Z,30.04
2017-04-17T05:59:54.349Z,30.13
2017-04-17T06:01:03.112Z,29.84
2017-04-17T06:02:11.859Z,30.04
2017-04-17T06:03:20.619Z,30.22
2017-04-17T06:04:29.526Z,30.04
2017-04-17T06:05:38.584Z,30.04
2017-04-17T06:06:47.639Z,30.04
2017-04-17T06:07:56.395Z,30.13
2017-04-17T06:09:05.457Z,30.13
2017-04-17T06:10:14.523Z,29.55
2017-04-17T06:11:23.586Z,30.04
2017-04-17T06:12:32.341Z,29.84
2017-04-17T06:13:41.408Z,29.84
2017-04-17T06:14:50.779Z,29.65
2017-04-17T06:16:00.147Z,30.13
2017-04-17T06:17:09.401Z,29.55
2017-04-17T06:18:18.164Z,29.46
2017-04-17T06:19:28.183Z,29.46
2017-04-17T06:20:37.548Z,29.46
2017-04-17T06:21:46.610Z,29.94
2017-04-17T06:22:55.365Z,29.94
2017-04-17T06:24:04.129Z,29.65
2017-04-17T06:25:13.495Z,29.65
2017-04-17T06:26:23.158Z,30.04
2017-04-17T06:27:32.190Z,29.74
2017-04-17T06:28:41.301Z,29.65
2017-04-17T06:29:50.698Z,29.74
2017-04-17T06:31:00.066Z,29.74
2017-04-17T06:32:09.126Z,29.65
2017-04-17T06:33:17.864Z,29.84
2017-04-17T06:34:26.904Z,29.74
2017-04-17T06:35:35.969Z,29.74
2017-04-17T06:36:45.000Z,29.65
2017-04-17T06:37:54.218Z,29.65
2017-04-17T06:39:03.011Z,29.66
2017-04-17T06:40:12.079Z,29.65
2017-04-17T06:41:20.819Z,29.66
2017-04-17T06:42:29.536Z,29.36
2017-04-17T06:43:38.604Z,29.65
2017-04-17T06:44:48.280Z,29.74
2017-04-17T06:45:57.350Z,29.86
2017-04-17T06:47:06.447Z,29.38
2017-04-17T06:48:15.402Z,29.28
2017-04-17T06:49:24.476Z,29.66
2017-04-17T06:50:33.515Z,29.08
2017-04-17T06:51:42.876Z,29.76
2017-04-17T06:52:52.510Z,29.66
2017-04-17T06:54:01.564Z,29.47
2017-04-17T06:55:10.930Z,29.38
2017-04-17T06:56:20.295Z,29.47
2017-04-17T06:57:29.670Z,29.57
2017-04-17T06:58:38.742Z,28.89
2017-04-17T06:59:48.003Z,29.57
2017-04-17T07:00:56.774Z,29.57
2017-04-17T07:02:05.821Z,29.57
2017-04-17T07:03:15.184Z,29.08
2017-04-17T07:04:24.578Z,28.99
2017-04-17T07:05:33.943Z,28.99
2017-04-17T07:06:43.334Z,29.38
2017-04-17T07:07:52.401Z,29.38
2017-04-17T07:09:02.065Z,29.38
2017-04-17T07:10:11.671Z,29.08
2017-04-17T07:11:20.432Z,29.28
2017-04-17T07:12:29.472Z,28.99
2017-04-17T07:13:38.496Z,29.28
2017-04-17T07:14:47.822Z,28.89
2017-04-17T07:15:57.198Z,28.89
2017-04-17T07:17:05.934Z,29.18
2017-04-17T07:18:14.947Z,29.08
2017-04-17T07:19:24.317Z,28.52
2017-04-17T07:20:33.274Z,28.99
2017-04-17T07:21:42.833Z,28.91
2017-04-17T07:22:52.155Z,28.72
2017-04-17T07:24:01.186Z,29.1
2017-04-17T07:25:10.217Z,28.7
2017-04-17T07:26:18.940Z,29.1
2017-04-17T07:27:28.325Z,29.1
2017-04-17T07:28:37.650Z,28.91
2017-04-17T07:29:46.995Z,29
2017-04-17T07:30:56.008Z,28.62
2017-04-17T07:32:04.772Z,29
2017-04-17T07:33:13.533Z,28.62
2017-04-17T07:34:22.717Z,28.91
2017-04-17T07:35:32.492Z,28.62
2017-04-17T07:36:41.247Z,28.91
2017-04-17T07:37:50.614Z,28.91
2017-04-17T07:38:59.966Z,29
2017-04-17T07:40:09.632Z,29
2017-04-17T07:41:18.402Z,29
2017-04-17T07:42:28.283Z,29.2
2017-04-17T07:43:37.345Z,28.81
2017-04-17T07:44:47.344Z,29.1
2017-04-17T07:45:56.430Z,28.91
2017-04-17T07:47:05.496Z,28.91
2017-04-17T07:48:14.566Z,28.91
2017-04-17T07:49:23.627Z,29
2017-04-17T07:50:32.689Z,29.1
2017-04-17T07:51:41.431Z,28.81
2017-04-17T07:52:50.352Z,28.81
2017-04-17T07:53:59.688Z,28.42
2017-04-17T07:55:08.696Z,28.72
2017-04-17T07:56:17.711Z,28.62
2017-04-17T07:57:27.377Z,28.62
2017-04-17T07:58:36.453Z,28.62
2017-04-17T07:59:46.709Z,28.62
2017-04-17T08:00:56.032Z,28.72
2017-04-17T08:02:04.789Z,28.62
2017-04-17T08:03:14.044Z,28.33
2017-04-17T08:04:23.100Z,28.42
2017-04-17T08:05:31.852Z,28.52
2017-04-17T08:06:40.617Z,28.23
2017-04-17T08:07:49.992Z,28.91
2017-04-17T08:08:59.871Z,28.42
2017-04-17T08:10:08.946Z,28.63
2017-04-17T08:11:18.288Z,28.42
2017-04-17T08:12:26.984Z,28.52
2017-04-17T08:13:36.519Z,28.42
2017-04-17T08:14:45.591Z,28.52
2017-04-17T08:15:54.660Z,28.81
2017-04-17T08:17:03.407Z,28.52
2017-04-17T08:18:13.070Z,28.52
2017-04-17T08:19:22.751Z,28.23
2017-04-17T08:20:32.117Z,28.44
2017-04-17T08:21:40.871Z,28.04
2017-04-17T08:22:49.945Z,28.25
2017-04-17T08:23:59.317Z,28.05
2017-04-17T08:25:09.191Z,28.15
2017-04-17T08:26:18.509Z,28.15
2017-04-17T08:27:27.842Z,28.05
2017-04-17T08:28:36.989Z,28.05
2017-04-17T08:29:46.058Z,27.96
2017-04-17T08:30:55.425Z,27.96
2017-04-17T08:32:04.488Z,27.67
2017-04-17T08:33:13.523Z,27.67
2017-04-17T08:34:22.247Z,27.67
2017-04-17T08:35:32.326Z,27.67
2017-04-17T08:36:41.087Z,27.57
2017-04-17T08:37:50.450Z,27.86
2017-04-17T08:38:59.524Z,27.68
2017-04-17T08:40:08.605Z,27.68
2017-04-17T08:41:17.361Z,27.96
2017-04-17T08:42:26.118Z,27.57
2017-04-17T08:43:35.504Z,27.76
2017-04-17T08:44:44.572Z,27.68
2017-04-17T08:45:54.144Z,27.96
2017-04-17T08:47:03.203Z,27.76
2017-04-17T08:48:12.267Z,27.76
2017-04-17T08:49:21.647Z,27.96
2017-04-17T08:50:31.319Z,28.05
2017-04-17T08:51:40.383Z,28.15
2017-04-17T08:52:49.763Z,27.96
2017-04-17T08:53:58.501Z,28.05
2017-04-17T08:55:07.503Z,28.44
2017-04-17T08:56:16.533Z,28.15
2017-04-17T08:57:25.613Z,28.15
2017-04-17T08:58:34.976Z,28.34
2017-04-17T08:59:44.044Z,27.86
2017-04-17T09:00:53.113Z,27.86
2017-04-17T09:02:01.880Z,27.76
2017-04-17T09:03:10.604Z,27.76
2017-04-17T09:04:19.348Z,27.67
2017-04-17T09:05:28.711Z,27.76
2017-04-17T09:06:37.772Z,27.78
2017-04-17T09:07:47.151Z,27.57
2017-04-17T09:08:56.491Z,27.87
2017-04-17T09:10:05.212Z,27.57
2017-04-17T09:11:13.979Z,27.87
2017-04-17T09:12:22.715Z,27.87
2017-04-17T09:13:31.428Z,27.59
2017-04-17T09:14:40.511Z,27.68
2017-04-17T09:15:49.566Z,27.49
2017-04-17T09:16:58.618Z,27.59
2017-04-17T09:18:07.369Z,27.68
2017-04-17T09:19:16.710Z,27.49
2017-04-17T09:20:25.730Z,27.68
2017-04-17T09:21:35.107Z,27.59
2017-04-17T09:22:43.867Z,27.78
2017-04-17T09:23:53.554Z,27.78
2017-04-17T09:25:02.617Z,27.78
2017-04-17T09:26:11.665Z,27.87
2017-04-17T09:27:21.019Z,27.87
2017-04-17T09:28:30.186Z,27.59
2017-04-17T09:29:39.503Z,27.87
2017-04-17T09:30:48.880Z,27.49
2017-04-17T09:31:58.101Z,27.68
2017-04-17T09:33:07.289Z,27.68
2017-04-17T09:34:16.053Z,27.68
2017-04-17T09:35:25.420Z,27.86
2017-04-17T09:36:34.184Z,27.86
2017-04-17T09:37:43.768Z,27.76
2017-04-17T09:38:53.207Z,27.67
2017-04-17T09:40:02.568Z,27.78
2017-04-17T09:41:11.336Z,27.59
2017-04-17T09:42:20.073Z,27.67
2017-04-17T09:43:29.106Z,27.96
2017-04-17T09:44:39.079Z,27.87
2017-04-17T09:45:47.836Z,27.78
2017-04-17T09:46:56.906Z,27.76
2017-04-17T09:48:05.963Z,27.67
2017-04-17T09:49:14.990Z,27.87
2017-04-17T09:50:24.669Z,27.78
2017-04-17T09:51:33.430Z,27.67
2017-04-17T09:52:42.200Z,27.78
2017-04-17T09:53:51.865Z,27.97
2017-04-17T09:55:00.922Z,27.96
2017-04-17T09:56:09.677Z,28.05
2017-04-17T09:57:18.399Z,27.87
2017-04-17T09:58:27.726Z,28.15
2017-04-17T09:59:36.802Z,28.05
2017-04-17T10:00:45.847Z,28.36
2017-04-17T10:01:54.862Z,28.05
2017-04-17T10:03:03.931Z,28.05
2017-04-17T10:04:12.997Z,28.07
2017-04-17T10:05:22.666Z,28.07
2017-04-17T10:06:32.031Z,27.78
2017-04-17T10:07:41.101Z,27.87
2017-04-17T10:08:50.168Z,27.59
2017-04-17T10:09:59.230Z,27.68
2017-04-17T10:11:08.290Z,27.68
2017-04-17T10:12:17.045Z,27.78
2017-04-17T10:13:26.416Z,27.68
2017-04-17T10:14:35.779Z,27.59
2017-04-17T10:15:44.832Z,27.68
2017-04-17T10:16:53.898Z,27.68
2017-04-17T10:18:02.660Z,27.87
2017-04-17T10:19:11.712Z,27.59
2017-04-17T10:20:21.049Z,27.39
2017-04-17T10:21:30.093Z,27.49
2017-04-17T10:22:39.091Z,27.49
2017-04-17T10:23:47.814Z,27.39
2017-04-17T10:24:56.541Z,27.2
2017-04-17T10:26:05.555Z,27.12
2017-04-17T10:27:14.331Z,26.34
2017-04-17T10:28:23.090Z,25.2
2017-04-17T10:29:32.164Z,24.35
2017-04-17T10:30:41.252Z,23.32
2017-04-17T10:31:49.993Z,21.88
2017-04-17T10:32:58.710Z,20.94
2017-04-17T10:34:07.766Z,19.7
2017-04-17T10:35:16.831Z,18.35
2017-04-17T10:36:25.595Z,17.3
2017-04-17T10:37:34.899Z,16.74
2017-04-17T10:38:43.643Z,16.17
2017-04-17T10:39:52.976Z,15.59
2017-04-17T10:41:02.352Z,15.5
2017-04-17T10:42:11.418Z,15.41
2017-04-17T10:43:20.167Z,15.41
2017-04-17T10:44:29.199Z,15.01
2017-04-17T10:45:37.965Z,15.59
2017-04-17T10:46:46.777Z,15.78
2017-04-17T10:47:55.895Z,16.07
2017-04-17T10:49:05.349Z,15.78
2017-04-17T10:50:14.620Z,15.5
2017-04-17T10:51:23.418Z,14.92
2017-04-17T10:52:33.454Z,15.03
2017-04-17T10:53:43.249Z,15.61
2017-04-17T10:54:52.931Z,16.08
2017-04-17T10:56:02.507Z,16.75
2017-04-17T10:57:11.564Z,16.94
2017-04-17T10:58:20.991Z,17.42
2017-04-17T10:59:30.619Z,17.32
2017-04-17T11:00:39.391Z,16.35
2017-04-17T11:01:48.155Z,15.87
2017-04-17T11:02:57.228Z,15.5
2017-04-17T11:04:06.272Z,14.53
2017-04-17T11:05:14.993Z,13.85
2017-04-17T11:06:24.372Z,13.48
2017-04-17T11:07:33.445Z,13.2
2017-04-17T11:08:42.821Z,12.81
2017-04-17T11:09:52.672Z,12.03
2017-04-17T11:11:01.395Z,12.13
2017-04-17T11:12:10.157Z,12.23
2017-04-17T11:13:19.223Z,13.01
2017-04-17T11:14:28.616Z,13.01
2017-04-17T11:15:37.680Z,12.42
2017-04-17T11:16:46.743Z,12.03
2017-04-17T11:17:55.812Z,11.65
2017-04-17T11:19:04.878Z,11.37
2017-04-17T11:20:13.923Z,10.98
2017-04-17T11:21:23.254Z,10.4
2017-04-17T11:22:31.992Z,9.91
2017-04-17T11:23:41.321Z,9.72
2017-04-17T11:24:50.368Z,9.93
2017-04-17T11:25:59.393Z,9.73
2017-04-17T11:27:08.395Z,9.73
2017-04-17T11:28:17.464Z,9.43
2017-04-17T11:29:26.834Z,9.05
2017-04-17T11:30:36.119Z,9.14
2017-04-17T11:31:45.215Z,9.83
2017-04-17T11:32:54.283Z,10.21
2017-04-17T11:34:03.084Z,10.5
2017-04-17T11:35:11.839Z,10.11
2017-04-17T11:36:20.598Z,11.09
2017-04-17T11:37:29.968Z,10.6
2017-04-17T11:38:39.351Z,10.21
2017-04-17T11:39:48.708Z,10.11
2017-04-17T11:40:57.636Z,9.63
2017-04-17T11:42:07.010Z,9.43
2017-04-17T11:43:15.770Z,9.24
2017-04-17T11:44:25.147Z,9.24
2017-04-17T11:45:33.912Z,9.63
2017-04-17T11:46:42.978Z,10.81
2017-04-17T11:47:51.740Z,11.08
2017-04-17T11:49:01.118Z,11.27
2017-04-17T11:50:10.182Z,11.08
2017-04-17T11:51:18.983Z,10.78
2017-04-17T11:52:28.360Z,10.5
2017-04-17T11:53:37.711Z,10.31
2017-04-17T11:54:47.023Z,9.92
2017-04-17T11:55:55.713Z,9.73
2017-04-17T11:57:04.450Z,9.34
2017-04-17T11:58:13.519Z,9.34
2017-04-17T11:59:22.291Z,9.14
2017-04-17T12:00:31.535Z,8.95
2017-04-17T12:01:40.259Z,9.05
2017-04-17T12:02:49.097Z,8.95
2017-04-17T12:03:58.492Z,9.34
2017-04-17T12:05:07.250Z,10.22
2017-04-17T12:06:16.320Z,10.71
2017-04-17T12:07:25.747Z,11.28
2017-04-17T12:08:34.794Z,11.96
2017-04-17T12:09:43.525Z,12.05
2017-04-17T12:10:52.594Z,12.82
2017-04-17T12:12:01.663Z,12.82
2017-04-17T12:13:10.485Z,13.79
2017-04-17T12:14:19.285Z,14.37
2017-04-17T12:15:28.868Z,14.26
2017-04-17T12:16:37.905Z,14.93
2017-04-17T12:17:46.673Z,15.61
2017-04-17T12:18:56.044Z,15.9
2017-04-17T12:20:05.083Z,15.89
2017-04-17T12:21:14.130Z,16.47
2017-04-17T12:22:23.507Z,16.46
2017-04-17T12:23:33.084Z,16.75
2017-04-17T12:24:43.371Z,16.84
2017-04-17T12:25:52.443Z,17.52
2017-04-17T12:27:01.209Z,17.61
2017-04-17T12:28:09.989Z,17.9
2017-04-17T12:29:19.351Z,17.9
2017-04-17T12:30:28.116Z,18.27
2017-04-17T12:31:37.184Z,18.46
2017-04-17T12:32:45.947Z,19.04
2017-04-17T12:33:55.628Z,19.14
2017-04-17T12:35:05.000Z,19.13
2017-04-17T12:36:13.766Z,19.62
2017-04-17T12:37:22.500Z,19.62
2017-04-17T12:38:31.197Z,19.61
2017-04-17T12:39:40.766Z,19.9
2017-04-17T12:40:50.111Z,20.19
2017-04-17T12:41:58.839Z,20.39
2017-04-17T12:43:07.618Z,20.18
2017-04-17T12:44:16.672Z,20.76
2017-04-17T12:45:26.045Z,20.76
2017-04-17T12:46:35.105Z,20.85
2017-04-17T12:47:44.749Z,21.04
2017-04-17T12:48:53.824Z,20.75
2017-04-17T12:50:02.888Z,21.14
2017-04-17T12:51:11.648Z,21.42
2017-04-17T12:52:21.013Z,21.71
2017-04-17T12:53:30.381Z,21.71
2017-04-17T12:54:40.063Z,21.71
2017-04-17T12:55:48.831Z,21.81
2017-04-17T12:56:58.204Z,21.8
2017-04-17T12:58:06.965Z,22.09
2017-04-17T12:59:16.333Z,22.09
2017-04-17T13:00:25.728Z,22.77
2017-04-17T13:01:34.556Z,22.67
2017-04-17T13:02:43.592Z,22.67
2017-04-17T13:03:52.631Z,22.75
2017-04-17T13:05:01.970Z,22.85
2017-04-17T13:06:11.339Z,23.05
2017-04-17T13:07:20.720Z,23.05
2017-04-17T13:08:30.186Z,22.95
2017-04-17T13:09:38.955Z,23.24
2017-04-17T13:10:48.018Z,23.33
2017-04-17T13:11:57.391Z,23.05
2017-04-17T13:13:06.161Z,23.13
2017-04-17T13:14:14.935Z,22.94
2017-04-17T13:15:24.348Z,23.33
2017-04-17T13:16:33.383Z,23.33
2017-04-17T13:17:42.409Z,23.13
2017-04-17T13:18:51.477Z,23.23
2017-04-17T13:20:01.150Z,22.92
2017-04-17T13:21:10.215Z,22.74
2017-04-17T13:22:19.289Z,22.54
2017-04-17T13:23:28.345Z,22.54
2017-04-17T13:24:38.010Z,22.83
2017-04-17T13:25:47.365Z,22.74
2017-04-17T13:26:56.198Z,22.54
2017-04-17T13:28:05.027Z,22.54
2017-04-17T13:29:14.075Z,22.34
2017-04-17T13:30:23.099Z,22.63
2017-04-17T13:31:32.192Z,23.02
2017-04-17T13:32:41.555Z,23.01
2017-04-17T13:33:51.225Z,22.91
2017-04-17T13:35:00.861Z,23.01
2017-04-17T13:36:10.007Z,23.21
2017-04-17T13:37:18.772Z,22.91
2017-04-17T13:38:28.441Z,23.01
2017-04-17T13:39:37.828Z,23.3
2017-04-17T13:40:46.608Z,23.11
2017-04-17T13:41:55.372Z,22.91
2017-04-17T13:43:04.438Z,23.1
2017-04-17T13:44:13.514Z,23.19
2017-04-17T13:45:22.275Z,23.29
2017-04-17T13:46:31.314Z,23.19
2017-04-17T13:47:40.381Z,23.39
2017-04-17T13:48:49.759Z,23.19
2017-04-17T13:50:00.046Z,23.68
2017-04-17T13:51:09.119Z,23.77
2017-04-17T13:52:17.875Z,23.58
2017-04-17T13:53:26.939Z,23.29
2017-04-17T13:54:35.709Z,23.57
2017-04-17T13:55:45.354Z,23.57
2017-04-17T13:56:55.183Z,23.86
2017-04-17T13:58:04.558Z,23.38
2017-04-17T13:59:13.624Z,23.66
2017-04-17T14:00:22.732Z,23.86
2017-04-17T14:01:31.783Z,23.76
2017-04-17T14:02:41.129Z,23.76
2017-04-17T14:03:50.689Z,23.66
2017-04-17T14:05:00.326Z,23.57
2017-04-17T14:06:09.392Z,23.66
2017-04-17T14:07:18.125Z,23.85
2017-04-17T14:08:27.447Z,23.86
2017-04-17T14:09:36.202Z,24.23
2017-04-17T14:10:45.567Z,24.15
2017-04-17T14:11:54.633Z,24.04
2017-04-17T14:13:03.397Z,24.14
2017-04-17T14:14:12.774Z,23.85
2017-04-17T14:15:22.450Z,23.56
2017-04-17T14:16:31.206Z,24.14
2017-04-17T14:17:40.268Z,24.14
2017-04-17T14:18:49.947Z,24.14
2017-04-17T14:19:59.014Z,23.94
2017-04-17T14:21:08.825Z,24.14
2017-04-17T14:22:17.590Z,24.52
2017-04-17T14:23:26.382Z,24.52
2017-04-17T14:24:35.146Z,24.14
2017-04-17T14:25:44.181Z,24.23
2017-04-17T14:26:52.897Z,24.33
2017-04-17T14:28:01.970Z,24.33
2017-04-17T14:29:10.736Z,24.23
2017-04-17T14:30:19.489Z,24.51
2017-04-17T14:31:28.252Z,24.22
2017-04-17T14:32:37.075Z,24.52
2017-04-17T14:33:46.751Z,24.62
2017-04-17T14:34:56.113Z,24.61
2017-04-17T14:36:04.875Z,24.51
2017-04-17T14:37:13.943Z,24.61
2017-04-17T14:38:23.323Z,24.62
2017-04-17T14:39:32.298Z,24.51
2017-04-17T14:40:41.056Z,24.32
2017-04-17T14:41:50.208Z,24.71
2017-04-17T14:42:59.336Z,24.61
2017-04-17T14:44:08.441Z,24.32
2017-04-17T14:45:17.518Z,24.22
2017-04-17T14:46:26.611Z,24.22
2017-04-17T14:47:35.929Z,24.99
2017-04-17T14:48:45.431Z,24.8
2017-04-17T14:49:54.821Z,25.09
2017-04-17T14:51:03.786Z,24.51
2017-04-17T14:52:12.544Z,24.61
2017-04-17T14:53:21.466Z,25.19